createdAt,value
2022-12-22T00:00:02.928Z,10.52
2022-12-22T00:01:02.776Z,10.53
2022-12-22T00:02:03.163Z,10.54
2022-12-22T00:03:03.181Z,10.53
2022-12-22T00:04:02.934Z,10.51
2022-12-22T00:05:02.497Z,10.47
2022-12-22T00:06:02.392Z,10.44
2022-12-22T00:07:01.909Z,10.42
2022-12-22T00:08:02.587Z,10.42
2022-12-22T00:09:05.748Z,10.44
2022-12-22T00:10:02.429Z,10.46
2022-12-22T00:11:02.207Z,10.48
2022-12-22T00:12:02.611Z,10.51
2022-12-22T00:13:02.522Z,10.53
2022-12-22T00:14:02.294Z,10.55
2022-12-22T00:15:02.362Z,10.56
2022-12-22T00:16:02.127Z,10.56
2022-12-22T00:17:03.213Z,10.57
2022-12-22T00:18:02.642Z,10.57
2022-12-22T00:19:02.994Z,10.56
2022-12-22T00:20:03.083Z,10.54
2022-12-22T00:21:02.828Z,10.50
2022-12-22T00:22:02.940Z,10.46
2022-12-22T00:23:02.740Z,10.45
2022-12-22T00:24:03.198Z,10.42
2022-12-22T00:25:02.700Z,10.41
2022-12-22T00:26:03.121Z,10.42
2022-12-22T00:27:01.937Z,10.42
2022-12-22T00:28:02.451Z,10.46
2022-12-22T00:29:02.250Z,10.46
2022-12-22T00:30:02.075Z,10.45
2022-12-22T00:31:02.618Z,10.44
2022-12-22T00:32:02.170Z,10.44
2022-12-22T00:33:02.789Z,10.41
2022-12-22T00:34:02.431Z,10.41
2022-12-22T00:35:02.154Z,10.43
2022-12-22T00:36:02.528Z,10.44
2022-12-22T00:37:02.443Z,10.46
2022-12-22T00:38:02.962Z,10.49
2022-12-22T00:39:02.433Z,10.49
2022-12-22T00:40:02.307Z,10.51
2022-12-22T00:41:02.313Z,10.52
2022-12-22T00:42:01.801Z,10.52
2022-12-22T00:43:02.115Z,10.53
2022-12-22T00:44:02.066Z,10.53
2022-12-22T00:45:01.859Z,10.55
2022-12-22T00:46:02.338Z,10.56
2022-12-22T00:47:01.843Z,10.54
2022-12-22T00:48:02.237Z,10.53
2022-12-22T00:49:01.934Z,10.49
2022-12-22T00:50:02.708Z,10.42
2022-12-22T00:51:02.280Z,10.43
2022-12-22T00:52:02.487Z,10.42
2022-12-22T00:53:02.430Z,10.45
2022-12-22T00:54:02.238Z,10.45
2022-12-22T00:55:01.985Z,10.45
2022-12-22T00:56:02.458Z,10.45
2022-12-22T00:57:02.171Z,10.43
2022-12-22T00:58:02.614Z,10.44
2022-12-22T00:59:02.359Z,10.45
2022-12-22T01:00:02.570Z,10.47
2022-12-22T01:01:02.480Z,10.48
2022-12-22T01:02:03.987Z,10.50
2022-12-22T01:03:03.726Z,10.48
2022-12-22T01:04:03.595Z,10.46
2022-12-22T01:05:03.363Z,10.46
2022-12-22T01:06:03.795Z,10.45
2022-12-22T01:07:02.681Z,10.45
2022-12-22T01:08:03.218Z,10.42
2022-12-22T01:09:02.747Z,10.37
2022-12-22T01:10:02.672Z,10.37
2022-12-22T01:11:03.200Z,10.40
2022-12-22T01:12:02.578Z,10.41
2022-12-22T01:13:03.074Z,10.42
2022-12-22T01:14:02.804Z,10.42
2022-12-22T01:15:02.622Z,10.40
2022-12-22T01:16:02.705Z,10.36
2022-12-22T01:17:03.180Z,10.34
2022-12-22T01:18:03.789Z,10.35
2022-12-22T01:19:03.383Z,10.38
2022-12-22T01:20:03.791Z,10.40
2022-12-22T01:21:03.337Z,10.41
2022-12-22T01:22:03.398Z,10.43
2022-12-22T01:23:02.937Z,10.43
2022-12-22T01:24:02.752Z,10.39
2022-12-22T01:25:03.051Z,10.39
2022-12-22T01:26:02.872Z,10.32
2022-12-22T01:27:03.316Z,10.32
2022-12-22T01:28:03.715Z,10.30
2022-12-22T01:29:03.186Z,10.30
2022-12-22T01:30:03.879Z,10.24
2022-12-22T01:31:03.530Z,10.23
2022-12-22T01:32:02.801Z,10.22
2022-12-22T01:33:03.265Z,10.19
2022-12-22T01:34:03.129Z,10.20
2022-12-22T01:35:02.971Z,10.21
2022-12-22T01:36:03.113Z,10.22
2022-12-22T01:37:03.466Z,10.22
2022-12-22T01:38:03.317Z,10.24
2022-12-22T01:39:03.958Z,10.24
2022-12-22T01:40:03.576Z,10.21
2022-12-22T01:41:03.829Z,10.23
2022-12-22T01:42:02.381Z,10.24
2022-12-22T01:43:02.398Z,10.23
2022-12-22T01:44:03.030Z,10.23
2022-12-22T01:45:02.529Z,10.26
2022-12-22T01:46:02.945Z,10.27
2022-12-22T01:47:02.665Z,10.27
2022-12-22T01:48:02.957Z,10.29
2022-12-22T01:49:02.649Z,10.28
2022-12-22T01:50:02.456Z,10.26
2022-12-22T01:51:02.898Z,10.22
2022-12-22T01:52:03.228Z,10.16
2022-12-22T01:53:03.718Z,10.17
2022-12-22T01:54:03.192Z,10.18
2022-12-22T01:55:03.569Z,10.15
2022-12-22T01:56:03.393Z,10.11
2022-12-22T01:57:02.953Z,10.00
2022-12-22T01:58:03.154Z,9.96
2022-12-22T01:59:03.012Z,9.92
2022-12-22T02:00:02.875Z,9.94
2022-12-22T02:01:02.898Z,9.97
2022-12-22T02:02:02.580Z,9.98
2022-12-22T02:03:02.286Z,10.00
2022-12-22T02:04:02.096Z,9.99
2022-12-22T02:05:02.536Z,9.96
2022-12-22T02:06:02.217Z,9.95
2022-12-22T02:07:02.865Z,9.91
2022-12-22T02:08:02.710Z,9.89
2022-12-22T02:09:02.652Z,9.86
2022-12-22T02:10:02.424Z,9.86
2022-12-22T02:11:02.827Z,9.82
2022-12-22T02:12:02.630Z,9.82
2022-12-22T02:13:01.895Z,9.84
2022-12-22T02:14:02.668Z,9.86
2022-12-22T02:15:01.975Z,9.88
2022-12-22T02:16:02.525Z,9.85
2022-12-22T02:17:02.489Z,9.78
2022-12-22T02:18:02.438Z,9.73
2022-12-22T02:19:02.193Z,9.69
2022-12-22T02:20:02.628Z,9.72
2022-12-22T02:21:02.098Z,9.77
2022-12-22T02:22:02.398Z,9.81
2022-12-22T02:23:02.856Z,9.86
2022-12-22T02:24:02.106Z,9.90
2022-12-22T02:25:02.517Z,9.95
2022-12-22T02:26:02.277Z,9.99
2022-12-22T02:27:02.813Z,10.02
2022-12-22T02:28:02.601Z,9.94
2022-12-22T02:29:02.624Z,9.93
2022-12-22T02:30:02.544Z,9.93
2022-12-22T02:31:02.465Z,9.91
2022-12-22T02:32:03.028Z,9.87
2022-12-22T02:33:09.106Z,9.87
2022-12-22T02:34:02.739Z,9.90
2022-12-22T02:35:02.560Z,9.90
2022-12-22T02:36:03.053Z,9.90
2022-12-22T02:37:02.270Z,9.91
2022-12-22T02:38:02.024Z,9.89
2022-12-22T02:39:01.900Z,9.87
2022-12-22T02:40:01.953Z,9.87
2022-12-22T02:41:02.398Z,9.88
2022-12-22T02:42:02.591Z,9.94
2022-12-22T02:43:02.676Z,9.96
2022-12-22T02:44:02.437Z,10.00
2022-12-22T02:45:02.339Z,10.02
2022-12-22T02:46:02.673Z,10.05
2022-12-22T02:47:03.012Z,10.04
2022-12-22T02:48:02.705Z,10.05
2022-12-22T02:49:03.063Z,10.04
2022-12-22T02:50:02.600Z,10.07
2022-12-22T02:51:02.977Z,10.07
2022-12-22T02:52:02.558Z,10.07
2022-12-22T02:53:02.217Z,10.08
2022-12-22T02:54:01.975Z,10.07
2022-12-22T02:55:02.382Z,10.10
2022-12-22T02:56:02.481Z,10.14
2022-12-22T02:57:02.867Z,10.16
2022-12-22T02:58:02.591Z,10.18
2022-12-22T02:59:02.417Z,10.19
2022-12-22T03:00:02.782Z,10.22
2022-12-22T03:01:02.607Z,10.23
2022-12-22T03:02:02.349Z,10.22
2022-12-22T03:03:02.110Z,10.23
2022-12-22T03:04:01.658Z,10.26
2022-12-22T03:05:02.165Z,10.26
2022-12-22T03:06:01.744Z,10.27
2022-12-22T03:07:02.109Z,10.29
2022-12-22T03:08:07.640Z,10.32
2022-12-22T03:09:02.085Z,10.31
2022-12-22T03:10:01.886Z,10.32
2022-12-22T03:11:01.704Z,10.29
2022-12-22T03:12:02.775Z,10.30
2022-12-22T03:13:02.440Z,10.31
2022-12-22T03:14:02.194Z,10.26
2022-12-22T03:15:02.691Z,10.32
2022-12-22T03:16:02.591Z,10.33
2022-12-22T03:17:02.896Z,10.37
2022-12-22T03:18:02.346Z,10.37
2022-12-22T03:19:02.779Z,10.36
2022-12-22T03:20:02.477Z,10.38
2022-12-22T03:21:03.001Z,10.36
2022-12-22T03:22:01.872Z,10.37
2022-12-22T03:23:01.730Z,10.37
2022-12-22T03:24:02.181Z,10.34
2022-12-22T03:25:01.726Z,10.31
2022-12-22T03:26:02.028Z,10.29
2022-12-22T03:27:02.393Z,10.30
2022-12-22T03:28:02.070Z,10.33
2022-12-22T03:29:02.256Z,10.29
2022-12-22T03:30:02.007Z,10.32
2022-12-22T03:31:01.858Z,10.32
2022-12-22T03:32:03.046Z,10.37
2022-12-22T03:33:02.989Z,10.35
2022-12-22T03:34:02.529Z,10.33
2022-12-22T03:35:03.030Z,10.37
2022-12-22T03:36:02.487Z,10.39
2022-12-22T03:37:02.030Z,10.42
2022-12-22T03:38:02.210Z,10.41
2022-12-22T03:39:02.507Z,10.43
2022-12-22T03:40:02.213Z,10.46
2022-12-22T03:41:02.543Z,10.51
2022-12-22T03:42:02.099Z,10.55
2022-12-22T03:43:02.464Z,10.58
2022-12-22T03:44:02.310Z,10.56
2022-12-22T03:45:02.729Z,10.54
2022-12-22T03:46:02.473Z,10.54
2022-12-22T03:47:02.338Z,10.50
2022-12-22T03:48:02.829Z,10.48
2022-12-22T03:49:02.378Z,10.45
2022-12-22T03:50:02.850Z,10.47
2022-12-22T03:51:02.323Z,10.50
2022-12-22T03:52:01.894Z,10.45
2022-12-22T03:53:01.968Z,10.40
2022-12-22T03:54:01.837Z,10.37
2022-12-22T03:55:02.306Z,10.36
2022-12-22T03:56:07.533Z,10.38
2022-12-22T03:57:02.237Z,10.38
2022-12-22T03:58:02.618Z,10.38
2022-12-22T03:59:02.079Z,10.39
2022-12-22T04:00:02.459Z,10.42
2022-12-22T04:01:02.409Z,10.44
2022-12-22T04:02:02.400Z,10.44
2022-12-22T04:03:02.544Z,10.46
2022-12-22T04:04:02.178Z,10.45
2022-12-22T04:05:02.685Z,10.43
2022-12-22T04:06:02.369Z,10.43
2022-12-22T04:07:01.977Z,10.43
2022-12-22T04:08:02.305Z,10.43
2022-12-22T04:09:01.965Z,10.43
2022-12-22T04:10:02.313Z,10.48
2022-12-22T04:11:02.430Z,10.52
2022-12-22T04:12:02.639Z,10.53
2022-12-22T04:13:03.144Z,10.53
2022-12-22T04:14:02.716Z,10.59
2022-12-22T04:15:03.064Z,10.62
2022-12-22T04:16:03.121Z,10.67
2022-12-22T04:17:01.907Z,10.66
2022-12-22T04:18:02.333Z,10.67
2022-12-22T04:19:01.813Z,10.69
2022-12-22T04:20:02.019Z,10.74
2022-12-22T04:21:02.375Z,10.70
2022-12-22T04:22:01.957Z,10.71
2022-12-22T04:23:02.064Z,10.72
2022-12-22T04:24:01.910Z,10.73
2022-12-22T04:25:01.739Z,10.72
2022-12-22T04:26:02.219Z,10.75
2022-12-22T04:27:01.902Z,10.78
2022-12-22T04:28:02.404Z,10.79
2022-12-22T04:29:01.961Z,10.81
2022-12-22T04:30:01.831Z,10.82
2022-12-22T04:31:02.356Z,10.85
2022-12-22T04:32:02.652Z,10.80
2022-12-22T04:33:02.934Z,10.76
2022-12-22T04:34:02.430Z,10.78
2022-12-22T04:35:02.949Z,10.76
2022-12-22T04:36:02.496Z,10.82
2022-12-22T04:37:11.407Z,10.84
2022-12-22T04:38:01.750Z,10.81
2022-12-22T04:39:02.280Z,10.83
2022-12-22T04:40:02.062Z,10.86
2022-12-22T04:41:01.880Z,10.85
2022-12-22T04:42:02.353Z,10.84
2022-12-22T04:43:02.081Z,10.84
2022-12-22T04:44:02.560Z,10.86
2022-12-22T04:45:02.335Z,10.85
2022-12-22T04:46:02.741Z,10.86
2022-12-22T04:47:02.122Z,10.81
2022-12-22T04:48:01.791Z,10.81
2022-12-22T04:49:02.083Z,10.82
2022-12-22T04:50:01.948Z,10.85
2022-12-22T04:51:02.264Z,10.84
2022-12-22T04:52:02.658Z,10.85
2022-12-22T04:53:03.039Z,10.87
2022-12-22T04:54:02.869Z,10.92
2022-12-22T04:55:02.684Z,10.97
2022-12-22T04:56:02.490Z,11.00
2022-12-22T04:57:02.057Z,11.00
2022-12-22T04:58:01.684Z,11.00
2022-12-22T04:59:02.135Z,11.03
2022-12-22T05:00:01.883Z,11.05
2022-12-22T05:01:01.879Z,11.07
2022-12-22T05:02:02.568Z,11.06
2022-12-22T05:03:02.369Z,11.09
2022-12-22T05:04:02.221Z,11.09
2022-12-22T05:05:02.741Z,11.11
2022-12-22T05:06:02.186Z,11.13
2022-12-22T05:07:02.768Z,11.09
2022-12-22T05:08:02.593Z,11.10
2022-12-22T05:09:02.365Z,11.09
2022-12-22T05:10:02.886Z,11.12
2022-12-22T05:11:02.538Z,11.13
2022-12-22T05:12:02.243Z,11.14
2022-12-22T05:13:01.697Z,11.09
2022-12-22T05:14:06.960Z,11.09
2022-12-22T05:15:01.960Z,11.09
2022-12-22T05:16:01.773Z,11.09
2022-12-22T05:17:02.248Z,11.09
2022-12-22T05:18:01.976Z,11.03
2022-12-22T05:19:01.822Z,11.02
2022-12-22T05:20:02.188Z,11.04
2022-12-22T05:21:01.975Z,11.05
2022-12-22T05:22:02.441Z,11.08
2022-12-22T05:23:02.141Z,11.03
2022-12-22T05:24:02.518Z,11.02
2022-12-22T05:25:02.343Z,10.92
2022-12-22T05:26:02.072Z,10.90
2022-12-22T05:27:02.548Z,10.85
2022-12-22T05:28:02.086Z,10.80
2022-12-22T05:29:02.491Z,10.84
2022-12-22T05:30:02.715Z,10.86
2022-12-22T05:31:02.277Z,10.80
2022-12-22T05:32:02.821Z,10.77
2022-12-22T05:33:02.573Z,10.77
2022-12-22T05:34:03.041Z,10.74
2022-12-22T05:35:02.632Z,10.79
2022-12-22T05:36:02.488Z,10.76
2022-12-22T05:37:02.257Z,10.82
2022-12-22T05:38:02.095Z,10.87
2022-12-22T05:39:01.961Z,10.91
2022-12-22T05:40:01.975Z,10.94
2022-12-22T05:41:04.417Z,10.98
2022-12-22T05:42:02.841Z,11.01
2022-12-22T05:43:02.570Z,11.01
2022-12-22T05:44:02.964Z,11.07
2022-12-22T05:45:02.515Z,11.10
2022-12-22T05:46:02.487Z,11.09
2022-12-22T05:47:02.954Z,11.08
2022-12-22T05:48:02.713Z,11.11
2022-12-22T05:49:03.123Z,11.12
2022-12-22T05:50:02.649Z,11.10
2022-12-22T05:51:03.166Z,11.13
2022-12-22T05:52:02.430Z,11.13
2022-12-22T05:53:02.135Z,11.16
2022-12-22T05:54:01.908Z,11.17
2022-12-22T05:55:02.033Z,11.18
2022-12-22T05:56:01.889Z,11.20
2022-12-22T05:57:03.103Z,11.19
2022-12-22T05:58:02.710Z,11.17
2022-12-22T05:59:02.525Z,11.11
2022-12-22T06:00:03.098Z,11.05
2022-12-22T06:01:02.853Z,10.99
2022-12-22T06:02:03.410Z,10.94
2022-12-22T06:03:03.025Z,10.91
2022-12-22T06:04:03.152Z,10.89
2022-12-22T06:05:03.045Z,10.86
2022-12-22T06:06:02.890Z,10.84
2022-12-22T06:07:03.018Z,10.82
2022-12-22T06:08:02.836Z,10.80
2022-12-22T06:09:03.197Z,10.78
2022-12-22T06:10:11.280Z,10.78
2022-12-22T06:11:03.169Z,10.76
2022-12-22T06:12:03.688Z,10.77
2022-12-22T06:13:03.582Z,10.80
2022-12-22T06:14:03.293Z,10.79
2022-12-22T06:15:03.100Z,10.82
2022-12-22T06:16:03.352Z,10.85
2022-12-22T06:17:03.811Z,10.88
2022-12-22T06:18:03.642Z,10.93
2022-12-22T06:19:03.497Z,10.98
2022-12-22T06:20:03.335Z,11.02
2022-12-22T06:21:03.819Z,11.04
2022-12-22T06:22:03.313Z,11.06
2022-12-22T06:23:03.099Z,11.08
2022-12-22T06:24:02.929Z,11.11
2022-12-22T06:25:03.327Z,11.15
2022-12-22T06:26:03.432Z,11.21
2022-12-22T06:27:03.628Z,11.25
2022-12-22T06:28:03.240Z,11.29
2022-12-22T06:29:03.704Z,11.33
2022-12-22T06:30:03.372Z,11.36
2022-12-22T06:31:03.193Z,11.38
2022-12-22T06:32:03.661Z,11.40
2022-12-22T06:33:03.237Z,11.33
2022-12-22T06:34:03.069Z,11.29
2022-12-22T06:35:03.581Z,11.25
2022-12-22T06:36:03.195Z,11.23
2022-12-22T06:37:03.405Z,11.24
2022-12-22T06:38:02.949Z,11.24
2022-12-22T06:39:03.388Z,11.20
2022-12-22T06:40:02.939Z,11.21
2022-12-22T06:41:04.100Z,11.22
2022-12-22T06:42:03.042Z,11.22
2022-12-22T06:43:08.434Z,11.21
2022-12-22T06:44:03.384Z,11.19
2022-12-22T06:45:03.188Z,11.17
2022-12-22T06:46:03.683Z,11.17
2022-12-22T06:47:03.287Z,11.18
2022-12-22T06:48:03.685Z,11.13
2022-12-22T06:49:03.689Z,11.14
2022-12-22T06:50:03.499Z,11.16
2022-12-22T06:51:03.342Z,11.16
2022-12-22T06:52:03.095Z,11.17
2022-12-22T06:53:03.477Z,11.17
2022-12-22T06:54:02.865Z,11.15
2022-12-22T06:55:03.388Z,11.10
2022-12-22T06:56:02.847Z,11.06
2022-12-22T06:57:03.310Z,11.01
2022-12-22T06:58:03.820Z,10.96
2022-12-22T06:59:03.579Z,10.88
2022-12-22T07:00:03.509Z,10.83
2022-12-22T07:01:03.752Z,10.79
2022-12-22T07:02:02.700Z,10.76
2022-12-22T07:03:02.872Z,10.72
2022-12-22T07:04:02.853Z,10.71
2022-12-22T07:05:03.150Z,10.69
2022-12-22T07:06:02.547Z,10.70
2022-12-22T07:07:03.008Z,10.69
2022-12-22T07:08:08.532Z,10.66
2022-12-22T07:09:03.532Z,10.64
2022-12-22T07:10:02.946Z,10.61
2022-12-22T07:11:03.331Z,10.58
2022-12-22T07:12:03.055Z,10.59
2022-12-22T07:13:03.470Z,10.61
2022-12-22T07:14:03.240Z,10.62
2022-12-22T07:15:03.022Z,10.63
2022-12-22T07:16:03.491Z,10.65
2022-12-22T07:17:03.371Z,10.67
2022-12-22T07:18:03.781Z,10.68
2022-12-22T07:19:03.463Z,10.72
2022-12-22T07:20:03.254Z,10.76
2022-12-22T07:21:03.782Z,10.79
2022-12-22T07:22:02.706Z,10.80
2022-12-22T07:23:03.141Z,10.81
2022-12-22T07:24:02.685Z,10.80
2022-12-22T07:25:03.224Z,10.79
2022-12-22T07:26:02.740Z,10.82
2022-12-22T07:27:03.198Z,10.83
2022-12-22T07:28:03.699Z,10.83
2022-12-22T07:29:03.202Z,10.81
2022-12-22T07:30:03.610Z,10.79
2022-12-22T07:31:03.178Z,10.78
2022-12-22T07:32:02.790Z,10.79
2022-12-22T07:33:02.629Z,10.78
2022-12-22T07:34:03.240Z,10.79
2022-12-22T07:35:05.556Z,10.78
2022-12-22T07:36:02.679Z,10.76
2022-12-22T07:37:03.080Z,10.77
2022-12-22T07:38:02.913Z,10.77
2022-12-22T07:39:03.630Z,10.74
2022-12-22T07:40:03.080Z,10.71
2022-12-22T07:41:05.567Z,10.67
2022-12-22T07:42:03.464Z,10.64
2022-12-22T07:43:03.393Z,10.64
2022-12-22T07:44:03.318Z,10.63
2022-12-22T07:45:03.879Z,10.66
2022-12-22T07:46:03.517Z,10.68
2022-12-22T07:47:03.269Z,10.71
2022-12-22T07:48:03.258Z,10.74
2022-12-22T07:49:03.184Z,10.76
2022-12-22T07:50:03.098Z,10.77
2022-12-22T07:51:02.951Z,10.79
2022-12-22T07:52:03.512Z,10.81
2022-12-22T07:53:03.378Z,10.82
2022-12-22T07:54:03.885Z,10.82
2022-12-22T07:55:03.514Z,10.80
2022-12-22T07:56:03.479Z,10.81
2022-12-22T07:57:03.111Z,10.83
2022-12-22T07:58:02.970Z,10.82
2022-12-22T07:59:02.804Z,10.84
2022-12-22T08:00:03.425Z,10.83
2022-12-22T08:01:03.109Z,10.86
2022-12-22T08:02:02.942Z,10.86
2022-12-22T08:03:02.685Z,10.87
2022-12-22T08:04:02.874Z,10.87
2022-12-22T08:05:02.596Z,10.89
2022-12-22T08:06:02.417Z,10.88
2022-12-22T08:07:03.012Z,10.86
2022-12-22T08:08:02.913Z,10.81
2022-12-22T08:09:02.857Z,10.79
2022-12-22T08:10:02.646Z,10.78
2022-12-22T08:11:03.262Z,10.74
2022-12-22T08:12:03.371Z,10.74
2022-12-22T08:13:03.186Z,10.75
2022-12-22T08:14:03.091Z,10.75
2022-12-22T08:15:03.061Z,10.74
2022-12-22T08:16:03.664Z,10.74
2022-12-22T08:17:03.161Z,10.74
2022-12-22T08:18:03.055Z,10.72
2022-12-22T08:19:03.503Z,10.73
2022-12-22T08:20:03.166Z,10.73
2022-12-22T08:21:02.995Z,10.75
2022-12-22T08:22:03.517Z,10.75
2022-12-22T08:23:03.445Z,10.77
2022-12-22T08:24:03.241Z,10.79
2022-12-22T08:25:03.178Z,10.78
2022-12-22T08:26:03.647Z,10.78
2022-12-22T08:27:03.112Z,10.76
2022-12-22T08:28:02.731Z,10.73
2022-12-22T08:29:02.702Z,10.74
2022-12-22T08:30:03.136Z,10.75
2022-12-22T08:31:02.730Z,10.77
2022-12-22T08:32:03.676Z,10.78
2022-12-22T08:33:03.417Z,10.78
2022-12-22T08:34:03.346Z,10.77
2022-12-22T08:35:03.267Z,10.77
2022-12-22T08:36:08.103Z,10.78
2022-12-22T08:37:03.602Z,10.80
2022-12-22T08:38:03.436Z,10.79
2022-12-22T08:39:03.402Z,10.81
2022-12-22T08:40:03.347Z,10.82
2022-12-22T08:41:03.246Z,10.83
2022-12-22T08:42:02.890Z,10.82
2022-12-22T08:43:02.440Z,10.81
2022-12-22T08:44:02.436Z,10.79
2022-12-22T08:45:02.453Z,10.79
2022-12-22T08:46:02.357Z,10.79
2022-12-22T08:47:03.413Z,10.80
2022-12-22T08:48:03.213Z,10.78
2022-12-22T08:49:03.024Z,10.75
2022-12-22T08:50:02.849Z,10.74
2022-12-22T08:51:02.801Z,10.73
2022-12-22T08:52:03.408Z,10.71
2022-12-22T08:53:03.079Z,10.71
2022-12-22T08:54:05.491Z,10.72
2022-12-22T08:55:02.922Z,10.72
2022-12-22T08:56:02.788Z,10.71
2022-12-22T08:57:03.100Z,10.72
2022-12-22T08:58:02.680Z,10.73
2022-12-22T08:59:02.623Z,10.73
2022-12-22T09:00:02.516Z,10.72
2022-12-22T09:01:03.162Z,10.74
2022-12-22T09:02:03.635Z,10.75
2022-12-22T09:03:03.618Z,10.73
2022-12-22T09:04:03.485Z,10.75
2022-12-22T09:05:03.309Z,10.74
2022-12-22T09:06:03.406Z,10.73
2022-12-22T09:07:02.512Z,10.73
2022-12-22T09:08:02.494Z,10.73
2022-12-22T09:09:02.477Z,10.72
2022-12-22T09:10:02.850Z,10.70
2022-12-22T09:11:02.719Z,10.67
2022-12-22T09:12:02.685Z,10.66
2022-12-22T09:13:03.298Z,10.66
2022-12-22T09:14:02.949Z,10.68
2022-12-22T09:15:02.825Z,10.71
2022-12-22T09:16:02.654Z,10.73
2022-12-22T09:17:03.911Z,10.74
2022-12-22T09:18:03.567Z,10.74
2022-12-22T09:19:03.480Z,10.73
2022-12-22T09:20:03.369Z,10.76
2022-12-22T09:21:03.214Z,10.76
2022-12-22T09:22:02.854Z,10.77
2022-12-22T09:23:02.829Z,10.77
2022-12-22T09:24:03.399Z,10.77
2022-12-22T09:25:03.029Z,10.76
2022-12-22T09:26:02.936Z,10.79
2022-12-22T09:27:03.038Z,10.81
2022-12-22T09:28:03.652Z,10.84
2022-12-22T09:29:03.389Z,10.86
2022-12-22T09:30:03.284Z,10.85
2022-12-22T09:31:03.141Z,10.86
2022-12-22T09:32:03.462Z,10.87
2022-12-22T09:33:03.225Z,10.85
2022-12-22T09:34:03.160Z,10.87
2022-12-22T09:35:03.598Z,10.88
2022-12-22T09:36:03.185Z,10.87
2022-12-22T09:37:02.713Z,10.89
2022-12-22T09:38:03.168Z,10.88
2022-12-22T09:39:02.899Z,10.84
2022-12-22T09:40:02.954Z,10.83
2022-12-22T09:41:02.716Z,10.79
2022-12-22T09:42:03.131Z,10.72
2022-12-22T09:43:03.403Z,10.72
2022-12-22T09:44:03.294Z,10.71
2022-12-22T09:45:03.278Z,10.67
2022-12-22T09:46:03.166Z,10.66
2022-12-22T09:47:02.801Z,10.67
2022-12-22T09:48:02.701Z,10.65
2022-12-22T09:49:02.651Z,10.65
2022-12-22T09:50:03.177Z,10.64
2022-12-22T09:51:03.120Z,10.65
2022-12-22T09:52:03.012Z,10.66
2022-12-22T09:53:03.660Z,10.64
2022-12-22T09:54:03.387Z,10.64
2022-12-22T09:55:03.230Z,10.63
2022-12-22T09:56:03.359Z,10.62
2022-12-22T09:57:02.725Z,10.62
2022-12-22T09:58:02.748Z,10.58
2022-12-22T09:59:02.752Z,10.57
2022-12-22T10:00:03.048Z,10.56
2022-12-22T10:01:02.961Z,10.55
2022-12-22T10:02:02.429Z,10.52
2022-12-22T10:03:02.174Z,10.52
2022-12-22T10:04:02.219Z,10.53
2022-12-22T10:05:02.256Z,10.50
2022-12-22T10:06:02.076Z,10.49
2022-12-22T10:07:02.748Z,10.45
2022-12-22T10:08:02.645Z,10.47
2022-12-22T10:09:05.812Z,10.46
2022-12-22T10:10:02.689Z,10.47
2022-12-22T10:11:02.483Z,10.47
2022-12-22T10:12:02.174Z,10.46
2022-12-22T10:13:02.127Z,10.47
2022-12-22T10:14:02.480Z,10.49
2022-12-22T10:15:02.250Z,10.48
2022-12-22T10:16:01.949Z,10.47
2022-12-22T10:17:02.686Z,10.45
2022-12-22T10:18:02.510Z,10.44
2022-12-22T10:19:02.560Z,10.44
2022-12-22T10:20:02.348Z,10.46
2022-12-22T10:21:02.291Z,10.46
2022-12-22T10:22:02.948Z,10.44
2022-12-22T10:23:02.996Z,10.45
2022-12-22T10:24:02.973Z,10.45
2022-12-22T10:25:03.061Z,10.50
2022-12-22T10:26:31.750Z,10.52
2022-12-22T10:27:02.592Z,10.51
2022-12-22T10:28:02.442Z,10.53
2022-12-22T10:29:02.401Z,10.55
2022-12-22T10:30:02.740Z,10.57
2022-12-22T10:31:02.557Z,10.58
2022-12-22T10:32:02.744Z,10.58
2022-12-22T10:33:02.640Z,10.57
2022-12-22T10:34:02.712Z,10.54
2022-12-22T10:35:02.621Z,10.52
2022-12-22T10:36:02.656Z,10.53
2022-12-22T10:37:02.367Z,10.54
2022-12-22T10:38:02.046Z,10.56
2022-12-22T10:39:02.085Z,10.56
2022-12-22T10:40:02.227Z,10.54
2022-12-22T10:41:02.811Z,10.54
2022-12-22T10:42:02.601Z,10.55
2022-12-22T10:43:02.431Z,10.58
2022-12-22T10:44:02.456Z,10.63
2022-12-22T10:45:02.395Z,10.64
2022-12-22T10:46:02.518Z,10.66
2022-12-22T10:47:02.589Z,10.65
2022-12-22T10:48:02.511Z,10.66
2022-12-22T10:49:02.466Z,10.68
2022-12-22T10:50:02.441Z,10.69
2022-12-22T10:51:02.187Z,10.69
2022-12-22T10:52:03.100Z,10.71
2022-12-22T10:53:03.330Z,10.72
2022-12-22T10:54:02.824Z,10.73
2022-12-22T10:55:02.775Z,10.74
2022-12-22T10:56:03.206Z,10.73
2022-12-22T10:57:02.364Z,10.73
2022-12-22T10:58:05.582Z,10.71
2022-12-22T10:59:02.213Z,10.72
2022-12-22T11:00:02.081Z,10.71
2022-12-22T11:01:02.492Z,10.69
2022-12-22T11:02:03.032Z,10.68
2022-12-22T11:03:02.876Z,10.66
2022-12-22T11:04:02.645Z,10.65
2022-12-22T11:05:02.676Z,10.64
2022-12-22T11:06:02.911Z,10.63
2022-12-22T11:07:02.908Z,10.60
2022-12-22T11:08:02.812Z,10.59
2022-12-22T11:09:31.286Z,10.61
2022-12-22T11:10:02.565Z,10.65
2022-12-22T11:11:02.423Z,10.67
2022-12-22T11:12:03.017Z,10.66
2022-12-22T11:13:02.997Z,10.66
2022-12-22T11:14:03.007Z,10.65
2022-12-22T11:15:03.016Z,10.60
2022-12-22T11:16:02.892Z,10.54
2022-12-22T11:17:02.864Z,10.50
2022-12-22T11:18:02.256Z,10.47
2022-12-22T11:19:02.879Z,10.45
2022-12-22T11:20:02.840Z,10.42
2022-12-22T11:21:02.433Z,10.44
2022-12-22T11:22:03.373Z,10.45
2022-12-22T11:23:03.255Z,10.44
2022-12-22T11:24:03.061Z,10.48
2022-12-22T11:25:03.090Z,10.53
2022-12-22T11:26:03.065Z,10.54
2022-12-22T11:27:02.876Z,10.54
2022-12-22T11:28:02.640Z,10.55
2022-12-22T11:29:02.645Z,10.55
2022-12-22T11:30:02.454Z,10.54
2022-12-22T11:31:02.931Z,10.57
2022-12-22T11:32:03.221Z,10.59
2022-12-22T11:33:02.741Z,10.62
2022-12-22T11:34:02.780Z,10.67
2022-12-22T11:35:02.918Z,10.70
2022-12-22T11:36:02.923Z,10.75
2022-12-22T11:37:02.027Z,10.78
2022-12-22T11:38:02.457Z,10.80
2022-12-22T11:39:02.359Z,10.84
2022-12-22T11:40:02.797Z,10.89
2022-12-22T11:41:02.506Z,10.90
2022-12-22T11:42:02.568Z,10.92
2022-12-22T11:43:03.532Z,10.95
2022-12-22T11:44:03.219Z,10.99
2022-12-22T11:45:02.957Z,11.03
2022-12-22T11:46:03.040Z,11.08
2022-12-22T11:47:03.271Z,11.12
2022-12-22T11:48:02.335Z,11.14
2022-12-22T11:49:02.775Z,11.15
2022-12-22T11:50:57.704Z,11.17
2022-12-22T11:51:10.862Z,11.20
2022-12-22T11:52:02.429Z,11.23
2022-12-22T11:53:03.105Z,11.28
2022-12-22T11:54:10.442Z,11.32
2022-12-22T11:55:03.160Z,11.32
2022-12-22T11:56:02.947Z,11.34
2022-12-22T11:57:02.963Z,11.32
2022-12-22T11:58:02.740Z,11.30
2022-12-22T11:59:02.223Z,11.25
2022-12-22T12:00:02.330Z,11.21
2022-12-22T12:01:15.269Z,11.20
2022-12-22T12:02:02.485Z,11.18
2022-12-22T12:03:02.288Z,11.15
2022-12-22T12:04:02.272Z,11.13
2022-12-22T12:05:02.593Z,11.07
2022-12-22T12:06:02.571Z,11.05
2022-12-22T12:07:02.290Z,11.03
2022-12-22T12:08:03.000Z,11.00
2022-12-22T12:09:03.086Z,10.97
2022-12-22T12:10:03.071Z,10.95
2022-12-22T12:11:03.075Z,10.93
2022-12-22T12:12:03.099Z,10.95
2022-12-22T12:13:03.127Z,10.94
2022-12-22T12:14:03.175Z,10.93
2022-12-22T12:15:03.225Z,10.93
2022-12-22T12:16:03.209Z,10.90
2022-12-22T12:17:02.777Z,10.89
2022-12-22T12:18:02.464Z,10.87
2022-12-22T12:19:02.374Z,10.87
2022-12-22T12:20:02.521Z,10.87
2022-12-22T12:21:02.554Z,10.87
2022-12-22T12:22:02.623Z,10.86
2022-12-22T12:23:02.237Z,10.88
2022-12-22T12:24:02.237Z,10.93
2022-12-22T12:25:02.369Z,10.96
2022-12-22T12:26:02.601Z,10.98
2022-12-22T12:27:02.330Z,10.98
2022-12-22T12:28:03.353Z,10.96
2022-12-22T12:29:03.071Z,10.93
2022-12-22T12:31:03.331Z,10.91
2022-12-22T12:32:02.857Z,10.88
2022-12-22T12:33:03.356Z,10.87
2022-12-22T12:34:03.436Z,10.87
2022-12-22T12:35:03.393Z,10.84
2022-12-22T12:36:03.342Z,10.85
2022-12-22T12:37:03.163Z,10.83
2022-12-22T12:38:02.959Z,10.80
2022-12-22T12:39:07.870Z,10.78
2022-12-22T12:40:03.348Z,10.77
2022-12-22T12:41:02.571Z,10.77
2022-12-22T12:42:03.050Z,10.76
2022-12-22T12:43:02.879Z,10.76
2022-12-22T12:44:02.908Z,10.77
2022-12-22T12:45:02.980Z,10.77
2022-12-22T12:46:03.171Z,10.79
2022-12-22T12:47:03.208Z,10.85
2022-12-22T12:48:02.385Z,10.87
2022-12-22T12:49:02.844Z,10.90
2022-12-22T12:50:02.848Z,10.89
2022-12-22T12:51:02.783Z,10.87
2022-12-22T12:52:02.605Z,10.91
2022-12-22T12:53:03.317Z,10.95
2022-12-22T12:54:03.039Z,10.98
2022-12-22T12:55:03.082Z,10.99